createdAt,value
2024-01-29T00:01:12.552Z,103062.47
2024-01-29T00:03:40.632Z,103055.41
2024-01-29T00:06:08.316Z,103061.81
2024-01-29T00:08:35.984Z,103058.47
2024-01-29T00:11:03.913Z,103062.63
2024-01-29T00:13:31.372Z,103069.41
2024-01-29T00:16:00.880Z,103071.50
2024-01-29T00:18:28.863Z,103072.31
2024-01-29T00:20:58.633Z,103073.97
2024-01-29T00:23:26.297Z,103075.22
2024-01-29T00:25:53.946Z,103065.31
2024-01-29T00:28:21.788Z,103067.16
2024-01-29T00:30:49.697Z,103062.56
2024-01-29T00:33:17.435Z,103060.47
2024-01-29T00:35:45.205Z,103059.88
2024-01-29T00:38:12.933Z,103060.78
2024-01-29T00:40:40.616Z,103058.50
2024-01-29T00:43:08.242Z,103063.13
2024-01-29T00:45:35.976Z,103062.47
2024-01-29T00:48:03.882Z,103064.72
2024-01-29T00:50:31.630Z,103064.91
2024-01-29T00:52:59.289Z,103067.59
2024-01-29T00:55:28.308Z,103059.78
2024-01-29T00:57:56.042Z,103063.66
2024-01-29T01:00:23.814Z,103065.13
2024-01-29T01:02:51.562Z,103062.63
2024-01-29T01:05:19.541Z,103065.13
2024-01-29T01:07:47.341Z,103063.88
2024-01-29T01:10:15.119Z,103062.69
2024-01-29T01:12:42.924Z,103055.59
2024-01-29T01:15:10.844Z,103067.13
2024-01-29T01:17:38.407Z,103069.00
2024-01-29T01:20:07.604Z,103053.72
2024-01-29T01:22:35.582Z,103065.06
2024-01-29T01:25:03.610Z,103058.66
2024-01-29T01:27:31.444Z,103067.13
2024-01-29T01:29:59.139Z,103067.75
2024-01-29T01:32:26.909Z,103062.66
2024-01-29T01:34:54.738Z,103061.38
2024-01-29T01:37:22.458Z,103063.72
2024-01-29T01:39:54.282Z,103067.59
2024-01-29T01:42:22.570Z,103070.47
2024-01-29T01:44:50.420Z,103075.44
2024-01-29T01:47:18.240Z,103067.69
2024-01-29T01:49:46.058Z,103063.31
2024-01-29T01:52:13.880Z,103068.44
2024-01-29T01:54:41.808Z,103069.31
2024-01-29T01:57:13.686Z,103059.34
2024-01-29T01:59:41.576Z,103063.16
2024-01-29T02:02:09.907Z,103056.56
2024-01-29T02:04:37.941Z,103061.88
2024-01-29T02:07:06.660Z,103064.78
2024-01-29T02:09:34.932Z,103061.69
2024-01-29T02:12:02.969Z,103060.28
2024-01-29T02:14:30.929Z,103059.59
2024-01-29T02:17:01.290Z,103060.16
2024-01-29T02:19:29.124Z,103063.91
2024-01-29T02:21:56.927Z,103056.47
2024-01-29T02:24:24.773Z,103063.16
2024-01-29T02:26:52.897Z,103063.47
2024-01-29T02:29:20.690Z,103065.16
2024-01-29T02:31:48.606Z,103066.00
2024-01-29T02:34:17.361Z,103062.44
2024-01-29T02:36:49.328Z,103045.13
2024-01-29T02:39:19.614Z,103050.59
2024-01-29T02:41:47.480Z,103048.66
2024-01-29T02:44:15.213Z,103044.22
2024-01-29T02:46:42.904Z,103054.13
2024-01-29T02:49:10.737Z,103058.31
2024-01-29T02:51:38.666Z,103055.97
2024-01-29T02:54:06.573Z,103049.59
2024-01-29T02:56:34.607Z,103050.22
2024-01-29T02:59:02.545Z,103046.91
2024-01-29T03:01:30.753Z,103053.00
2024-01-29T03:03:58.783Z,103054.38
2024-01-29T03:06:26.678Z,103049.13
2024-01-29T03:08:54.706Z,103050.84
2024-01-29T03:11:22.351Z,103045.31
2024-01-29T03:13:50.284Z,103045.34
2024-01-29T03:16:18.590Z,103040.16
2024-01-29T03:18:46.642Z,103035.66
2024-01-29T03:21:15.234Z,103034.97
2024-01-29T03:23:43.020Z,103031.56
2024-01-29T03:26:11.003Z,103029.47
2024-01-29T03:28:38.994Z,103025.44
2024-01-29T03:31:07.211Z,103025.72
2024-01-29T03:33:35.154Z,103031.94
2024-01-29T03:36:06.916Z,103031.47
2024-01-29T03:38:34.689Z,103030.03
2024-01-29T03:41:02.317Z,103025.53
2024-01-29T03:43:33.654Z,103029.22
2024-01-29T03:46:01.500Z,103029.47
2024-01-29T03:48:30.018Z,103026.56
2024-01-29T03:50:57.759Z,103023.88
2024-01-29T03:53:25.586Z,103019.75
2024-01-29T03:55:54.025Z,103025.50
2024-01-29T03:58:22.340Z,103021.00
2024-01-29T04:00:50.161Z,103021.09
2024-01-29T04:03:17.977Z,103020.31
2024-01-29T04:05:46.396Z,103022.78
2024-01-29T04:08:14.137Z,103022.31
2024-01-29T04:10:41.777Z,103017.25
2024-01-29T04:13:09.552Z,103012.38
2024-01-29T04:15:37.322Z,103011.56
2024-01-29T04:18:05.348Z,103009.28
2024-01-29T04:20:32.968Z,103018.28
2024-01-29T04:23:00.606Z,103019.31
2024-01-29T04:25:28.339Z,103016.78
2024-01-29T04:27:56.397Z,103015.16
2024-01-29T04:30:30.912Z,103014.63
2024-01-29T04:33:11.006Z,103024.22
2024-01-29T04:35:38.807Z,103023.91
2024-01-29T04:38:06.493Z,103021.00
2024-01-29T04:40:40.104Z,103017.66
2024-01-29T04:43:07.858Z,103016.75
2024-01-29T04:45:35.626Z,103026.00
2024-01-29T04:48:03.796Z,103028.03
2024-01-29T04:50:31.552Z,103023.19
2024-01-29T04:52:59.358Z,103021.41
2024-01-29T04:55:27.133Z,103026.78
2024-01-29T04:57:55.073Z,103033.91
2024-01-29T05:00:22.830Z,103030.47
2024-01-29T05:02:50.386Z,103033.97
2024-01-29T05:05:18.291Z,103035.06
2024-01-29T05:07:45.970Z,103031.81
2024-01-29T05:10:13.811Z,103034.50
2024-01-29T05:12:41.665Z,103029.97
2024-01-29T05:15:09.420Z,103028.50
2024-01-29T05:17:37.422Z,103040.66
2024-01-29T05:20:06.045Z,103038.63
2024-01-29T05:22:33.898Z,103035.22
2024-01-29T05:25:01.816Z,103039.31
2024-01-29T05:27:29.667Z,103042.25
2024-01-29T05:29:57.454Z,103038.69
2024-01-29T05:32:25.188Z,103038.91
2024-01-29T05:34:53.031Z,103043.44
2024-01-29T05:37:20.868Z,103046.78
2024-01-29T05:39:48.742Z,103050.84
2024-01-29T05:42:16.540Z,103043.28
2024-01-29T05:44:44.173Z,103037.91
2024-01-29T05:47:11.915Z,103044.66
2024-01-29T05:49:40.229Z,103049.28
2024-01-29T05:52:07.991Z,103033.38
2024-01-29T05:54:35.840Z,103051.72
2024-01-29T05:57:03.972Z,103050.25
2024-01-29T05:59:31.650Z,103051.66
2024-01-29T06:01:59.591Z,103052.09
2024-01-29T06:04:27.699Z,103056.53
2024-01-29T06:06:55.607Z,103055.63
2024-01-29T06:09:26.371Z,103053.63
2024-01-29T06:11:55.793Z,103055.22
2024-01-29T06:14:23.841Z,103050.22
2024-01-29T06:16:51.571Z,103052.78
2024-01-29T06:19:20.673Z,103050.66
2024-01-29T06:21:49.977Z,103053.97
2024-01-29T06:24:18.145Z,103052.88
2024-01-29T06:26:48.907Z,103049.19
2024-01-29T06:29:17.355Z,103048.75
2024-01-29T06:31:45.191Z,103053.34
2024-01-29T06:34:12.935Z,103061.16
2024-01-29T06:36:40.812Z,103055.81
2024-01-29T06:39:09.159Z,103055.34
2024-01-29T06:41:36.942Z,103056.69
2024-01-29T06:44:04.786Z,103048.28
2024-01-29T06:46:33.802Z,103048.09
2024-01-29T06:49:01.426Z,103056.03
2024-01-29T06:51:29.293Z,103053.63
2024-01-29T06:53:58.925Z,103042.53
2024-01-29T06:56:26.831Z,103045.09
2024-01-29T06:58:54.619Z,103052.88
2024-01-29T07:01:22.474Z,103057.56
2024-01-29T07:03:50.520Z,103055.00
2024-01-29T07:06:18.552Z,103043.88
2024-01-29T07:08:46.266Z,103037.38
2024-01-29T07:11:14.121Z,103051.03
2024-01-29T07:13:41.943Z,103047.78
2024-01-29T07:16:09.957Z,103049.47
2024-01-29T07:18:38.958Z,103047.50
2024-01-29T07:21:07.710Z,103042.63
2024-01-29T07:23:35.460Z,103043.16
2024-01-29T07:26:03.493Z,103042.38
2024-01-29T07:28:32.761Z,103040.25
2024-01-29T07:31:00.438Z,103047.53
2024-01-29T07:33:28.358Z,103050.03
2024-01-29T07:35:56.680Z,103053.91
2024-01-29T07:38:24.878Z,103048.91
2024-01-29T07:40:52.652Z,103053.72
2024-01-29T07:43:20.497Z,103037.78
2024-01-29T07:45:48.229Z,103049.94
2024-01-29T07:48:16.120Z,103054.56
2024-01-29T07:50:43.948Z,103053.78
2024-01-29T07:53:11.679Z,103060.16
2024-01-29T07:55:39.551Z,103058.66
2024-01-29T07:58:08.774Z,103057.81
2024-01-29T08:00:36.806Z,103061.06
2024-01-29T08:03:05.142Z,103066.50
2024-01-29T08:05:33.337Z,103064.81
2024-01-29T08:08:01.172Z,103064.91
2024-01-29T08:10:28.791Z,103059.13
2024-01-29T08:12:56.486Z,103062.59
2024-01-29T08:15:25.148Z,103060.78
2024-01-29T08:17:53.072Z,103057.13
2024-01-29T08:20:21.249Z,103051.50
2024-01-29T08:22:49.013Z,103066.22
2024-01-29T08:25:16.913Z,103061.44
2024-01-29T08:27:44.521Z,103063.50
2024-01-29T08:30:12.406Z,103068.13
2024-01-29T08:32:41.301Z,103060.84
2024-01-29T08:35:10.334Z,103058.91
2024-01-29T08:37:38.254Z,103057.56
2024-01-29T08:40:07.070Z,103064.81
2024-01-29T08:42:34.831Z,103055.19
2024-01-29T08:45:02.662Z,103057.44
2024-01-29T08:47:30.738Z,103058.97
2024-01-29T08:49:58.831Z,103059.72
2024-01-29T08:52:26.676Z,103065.47
2024-01-29T08:54:54.616Z,103071.50
2024-01-29T08:57:22.245Z,103068.81
2024-01-29T08:59:50.035Z,103071.28
2024-01-29T09:02:17.785Z,103075.44
2024-01-29T09:04:45.647Z,103071.94
2024-01-29T09:07:13.787Z,103072.81
2024-01-29T09:09:43.026Z,103067.41
2024-01-29T09:12:11.011Z,103074.88
2024-01-29T09:14:38.684Z,103078.19
2024-01-29T09:17:06.470Z,103076.09
2024-01-29T09:19:34.393Z,103081.91
2024-01-29T09:22:02.162Z,103081.09
2024-01-29T09:24:31.337Z,103078.19
2024-01-29T09:26:59.938Z,103082.72
2024-01-29T09:29:27.652Z,103075.00
2024-01-29T09:31:55.360Z,103082.69
2024-01-29T09:34:26.267Z,103085.81
2024-01-29T09:36:54.582Z,103088.50
2024-01-29T09:39:25.037Z,103079.66
2024-01-29T09:41:53.456Z,103087.53
2024-01-29T09:44:22.644Z,103083.19
2024-01-29T09:46:51.274Z,103082.97
2024-01-29T09:49:19.530Z,103085.66
2024-01-29T09:51:48.577Z,103090.00
2024-01-29T09:54:16.437Z,103082.16
2024-01-29T09:56:44.231Z,103092.25
2024-01-29T09:59:12.021Z,103089.59
2024-01-29T10:01:42.124Z,103091.81
2024-01-29T10:04:10.223Z,103096.22
2024-01-29T10:06:38.066Z,103092.06
2024-01-29T10:09:06.177Z,103087.53
2024-01-29T10:11:33.969Z,103091.06
2024-01-29T10:14:01.977Z,103094.38
2024-01-29T10:16:29.997Z,103081.97
2024-01-29T10:18:59.273Z,103089.00
2024-01-29T10:21:27.733Z,103080.09
2024-01-29T10:23:58.964Z,103080.75
2024-01-29T10:26:28.153Z,103072.03
2024-01-29T10:29:07.032Z,103078.44
2024-01-29T10:31:35.070Z,103083.22
2024-01-29T10:34:04.988Z,103089.19
2024-01-29T10:36:33.497Z,103076.97
2024-01-29T10:39:01.517Z,103078.00
2024-01-29T10:41:33.345Z,103081.09
2024-01-29T10:44:04.059Z,103084.41
2024-01-29T10:46:37.691Z,103086.06
2024-01-29T10:49:06.244Z,103082.94
2024-01-29T10:51:35.440Z,103084.56
2024-01-29T10:54:03.569Z,103087.66
2024-01-29T10:56:31.912Z,103085.63
2024-01-29T10:59:03.195Z,103085.25
2024-01-29T11:01:32.539Z,103084.81
2024-01-29T11:04:02.370Z,103088.53
2024-01-29T11:06:48.459Z,103087.06
2024-01-29T11:09:20.747Z,103085.25
2024-01-29T11:11:49.960Z,103082.13
2024-01-29T11:14:21.186Z,103078.78
2024-01-29T11:16:53.192Z,103077.19
2024-01-29T11:19:25.107Z,103083.16
2024-01-29T11:21:53.012Z,103079.41
2024-01-29T11:24:24.119Z,103081.13
2024-01-29T11:26:54.554Z,103079.66
2024-01-29T11:29:24.058Z,103075.94
2024-01-29T11:31:55.255Z,103073.59
2024-01-29T11:34:30.211Z,103061.97
2024-01-29T11:36:58.889Z,103056.66
2024-01-29T11:39:28.766Z,103057.31
2024-01-29T11:41:57.708Z,103054.13
2024-01-29T11:44:27.130Z,103052.13
2024-01-29T11:46:56.662Z,103059.78
2024-01-29T11:49:28.177Z,103057.44
2024-01-29T11:51:56.473Z,103052.13
2024-01-29T11:54:25.542Z,103043.13
2024-01-29T11:56:53.362Z,103045.56
2024-01-29T11:59:21.113Z,103044.72
2024-01-29T12:01:51.448Z,103039.72
2024-01-29T12:04:19.602Z,103035.06
2024-01-29T12:06:47.511Z,103034.13
2024-01-29T12:09:15.780Z,103028.25
2024-01-29T12:11:43.562Z,103029.47
2024-01-29T12:14:11.342Z,103027.06
2024-01-29T12:16:39.132Z,103031.03
2024-01-29T12:19:07.043Z,103024.47
2024-01-29T12:21:36.311Z,103020.41
2024-01-29T12:24:04.480Z,103013.31
2024-01-29T12:26:32.375Z,103013.69
2024-01-29T12:29:02.896Z,103010.53
2024-01-29T12:31:31.728Z,103001.47
2024-01-29T12:33:59.598Z,103002.53
2024-01-29T12:36:27.554Z,102997.91
2024-01-29T12:38:58.662Z,102994.84
2024-01-29T12:41:34.805Z,102982.13
2024-01-29T12:44:12.750Z,102987.16
2024-01-29T12:46:41.011Z,102991.50
2024-01-29T12:49:09.199Z,102989.03
2024-01-29T12:51:37.578Z,102981.47
2024-01-29T12:54:06.224Z,102980.66
2024-01-29T12:56:34.259Z,102972.38
2024-01-29T12:59:07.871Z,102972.13
2024-01-29T13:01:36.023Z,102972.19
2024-01-29T13:04:04.338Z,102960.78
2024-01-29T13:06:32.468Z,102966.00
2024-01-29T13:09:00.226Z,102955.75
2024-01-29T13:11:28.162Z,102957.91
2024-01-29T13:13:56.007Z,102957.91
2024-01-29T13:16:23.877Z,102960.19
2024-01-29T13:18:51.835Z,102955.97
2024-01-29T13:21:22.381Z,102950.84
2024-01-29T13:23:50.311Z,102955.88
2024-01-29T13:26:19.405Z,102947.84
2024-01-29T13:28:47.310Z,102951.53
2024-01-29T13:31:15.280Z,102946.59
2024-01-29T13:33:43.411Z,102948.41
2024-01-29T13:36:11.381Z,102947.28
2024-01-29T13:38:40.055Z,102959.47
2024-01-29T13:41:10.509Z,102951.19
2024-01-29T13:43:38.518Z,102949.03
2024-01-29T13:46:06.339Z,102944.78
2024-01-29T13:48:34.629Z,102947.63
2024-01-29T13:51:02.958Z,102948.06
2024-01-29T13:53:30.741Z,102943.41
2024-01-29T13:55:58.469Z,102938.75
2024-01-29T13:58:26.820Z,102937.25
2024-01-29T14:00:54.697Z,102938.19
2024-01-29T14:03:22.777Z,102941.13
2024-01-29T14:05:50.404Z,102931.16
2024-01-29T14:08:18.016Z,102941.84
2024-01-29T14:10:45.839Z,102932.47
2024-01-29T14:13:17.237Z,102931.84
2024-01-29T14:15:45.245Z,102927.00
2024-01-29T14:18:13.036Z,102926.06
2024-01-29T14:20:40.825Z,102924.31
2024-01-29T14:23:09.531Z,102926.94
2024-01-29T14:25:37.262Z,102927.88
2024-01-29T14:28:05.327Z,102929.72
2024-01-29T14:30:33.166Z,102921.16
2024-01-29T14:33:01.267Z,102927.34
2024-01-29T14:35:29.076Z,102931.69
2024-01-29T14:37:56.893Z,102923.13
2024-01-29T14:40:24.733Z,102927.00
2024-01-29T14:42:52.506Z,102929.72
2024-01-29T14:45:20.379Z,102923.47
2024-01-29T14:47:50.012Z,102924.88
2024-01-29T14:50:17.835Z,102920.78
2024-01-29T14:52:45.462Z,102916.91
2024-01-29T14:55:13.201Z,102916.34
2024-01-29T14:57:42.169Z,102911.19
2024-01-29T15:00:10.409Z,102908.34
2024-01-29T15:02:38.237Z,102907.53
2024-01-29T15:05:10.191Z,102907.78
2024-01-29T15:07:40.441Z,102912.13
2024-01-29T15:10:12.995Z,102912.59
2024-01-29T15:12:44.581Z,102909.53
2024-01-29T15:15:12.565Z,102908.94
2024-01-29T15:17:40.450Z,102902.38
2024-01-29T15:20:09.697Z,102910.63
2024-01-29T15:22:37.653Z,102911.38
2024-01-29T15:25:06.678Z,102907.28
2024-01-29T15:27:34.624Z,102912.41
2024-01-29T15:30:02.616Z,102914.28
2024-01-29T15:32:32.145Z,102897.41
2024-01-29T15:34:59.850Z,102907.38
2024-01-29T15:37:28.785Z,102908.13
2024-01-29T15:39:56.569Z,102906.13
2024-01-29T15:42:29.934Z,102902.44
2024-01-29T15:44:57.705Z,102902.53
2024-01-29T15:47:25.686Z,102911.16
2024-01-29T15:49:53.440Z,102912.50
2024-01-29T15:52:21.268Z,102905.31
2024-01-29T15:54:48.962Z,102910.19
2024-01-29T15:57:16.847Z,102913.38
2024-01-29T15:59:46.435Z,102919.84
2024-01-29T16:02:14.255Z,102920.09
2024-01-29T16:04:44.136Z,102928.03
2024-01-29T16:07:12.228Z,102924.81
2024-01-29T16:09:40.163Z,102919.03
2024-01-29T16:12:08.385Z,102924.09
2024-01-29T16:14:36.873Z,102925.56
2024-01-29T16:17:05.386Z,102917.34
2024-01-29T16:19:33.286Z,102916.75
2024-01-29T16:22:01.021Z,102919.88
2024-01-29T16:24:28.885Z,102930.25
2024-01-29T16:26:56.612Z,102920.59
2024-01-29T16:29:26.121Z,102928.09
2024-01-29T16:31:54.216Z,102933.47
2024-01-29T16:34:23.609Z,102931.44
2024-01-29T16:36:52.607Z,102931.06
2024-01-29T16:39:20.811Z,102938.75
2024-01-29T16:41:48.537Z,102939.22
2024-01-29T16:44:16.996Z,102940.25
2024-01-29T16:46:44.784Z,102940.09
2024-01-29T16:49:12.624Z,102938.63
2024-01-29T16:51:40.598Z,102934.06
2024-01-29T16:54:08.390Z,102940.28
2024-01-29T16:56:38.622Z,102945.28
2024-01-29T16:59:08.742Z,102951.13
2024-01-29T17:01:37.118Z,102948.78
2024-01-29T17:04:05.255Z,102947.22
2024-01-29T17:06:33.224Z,102945.56
2024-01-29T17:09:01.190Z,102945.16
2024-01-29T17:11:28.966Z,102943.97
2024-01-29T17:13:56.714Z,102950.03
2024-01-29T17:16:25.282Z,102948.34
2024-01-29T17:18:53.181Z,102945.91
2024-01-29T17:21:21.845Z,102946.09
2024-01-29T17:23:49.798Z,102947.53
2024-01-29T17:26:17.529Z,102947.53
2024-01-29T17:28:46.346Z,102944.03
2024-01-29T17:31:14.530Z,102949.84
2024-01-29T17:33:42.424Z,102946.13
2024-01-29T17:36:10.513Z,102952.13
2024-01-29T17:38:38.301Z,102957.72
2024-01-29T17:41:06.252Z,102951.34
2024-01-29T17:43:34.026Z,102952.16
2024-01-29T17:46:02.003Z,102949.91
2024-01-29T17:48:30.036Z,102951.13
2024-01-29T17:50:57.880Z,102954.00
2024-01-29T17:53:27.951Z,102953.00
2024-01-29T17:55:57.828Z,102961.28
2024-01-29T17:58:25.599Z,102962.31
2024-01-29T18:00:56.539Z,102963.53
2024-01-29T18:03:26.030Z,102968.50
2024-01-29T18:05:54.437Z,102971.81
2024-01-29T18:08:24.505Z,102970.38
2024-01-29T18:10:53.378Z,102972.84
2024-01-29T18:13:24.655Z,102976.38
2024-01-29T18:15:53.464Z,102978.47
2024-01-29T18:18:21.659Z,102976.38
2024-01-29T18:20:49.580Z,102981.53
2024-01-29T18:23:17.437Z,102981.56
2024-01-29T18:25:45.811Z,102981.13
2024-01-29T18:28:13.711Z,102984.84
2024-01-29T18:30:41.559Z,102982.78
2024-01-29T18:33:09.364Z,102979.88
2024-01-29T18:35:37.225Z,102977.22
2024-01-29T18:38:05.048Z,102985.06
2024-01-29T18:40:36.563Z,102990.84
2024-01-29T18:43:04.586Z,102986.72
2024-01-29T18:45:32.581Z,102980.94
2024-01-29T18:48:00.356Z,102986.69
2024-01-29T18:50:28.641Z,102984.44
2024-01-29T18:52:56.478Z,102987.94
2024-01-29T18:55:25.284Z,102982.34
2024-01-29T18:57:53.265Z,102984.66
2024-01-29T19:00:21.362Z,102979.88
2024-01-29T19:02:49.305Z,102986.94
2024-01-29T19:05:17.417Z,102993.53
2024-01-29T19:07:49.312Z,103001.81
2024-01-29T19:10:17.315Z,102990.25
2024-01-29T19:12:45.284Z,102991.06
2024-01-29T19:15:13.039Z,102990.88
2024-01-29T19:17:40.869Z,102998.72
2024-01-29T19:20:10.363Z,102992.50
2024-01-29T19:22:38.130Z,102997.47
2024-01-29T19:25:07.104Z,102999.13
2024-01-29T19:27:34.872Z,102992.50
2024-01-29T19:30:02.748Z,102991.88
2024-01-29T19:32:30.620Z,103002.00
2024-01-29T19:34:58.547Z,103005.31
2024-01-29T19:37:29.566Z,103006.53
2024-01-29T19:40:01.969Z,103002.41
2024-01-29T19:42:30.411Z,103011.91
2024-01-29T19:44:58.426Z,103011.69
2024-01-29T19:47:26.072Z,103013.13
2024-01-29T19:49:57.654Z,103014.38
2024-01-29T19:52:27.995Z,103019.13
2024-01-29T19:54:55.755Z,103014.81
2024-01-29T19:57:23.646Z,103012.50
2024-01-29T19:59:51.265Z,103009.84
2024-01-29T20:02:19.014Z,103017.66
2024-01-29T20:04:47.090Z,103017.88
2024-01-29T20:07:14.796Z,103019.09
2024-01-29T20:09:42.720Z,103024.47
2024-01-29T20:12:10.463Z,103020.34
2024-01-29T20:14:39.048Z,103014.59
2024-01-29T20:17:06.733Z,103018.88
2024-01-29T20:19:34.529Z,103020.75
2024-01-29T20:22:02.495Z,103023.88
2024-01-29T20:24:30.306Z,103022.81
2024-01-29T20:26:58.090Z,103024.28
2024-01-29T20:29:25.776Z,103023.25
2024-01-29T20:31:53.989Z,103026.97
2024-01-29T20:34:21.831Z,103020.34
2024-01-29T20:36:50.285Z,103025.72
2024-01-29T20:39:18.271Z,103023.22
2024-01-29T20:41:47.445Z,103017.66
2024-01-29T20:44:16.179Z,103022.38
2024-01-29T20:46:45.956Z,103010.84
2024-01-29T20:49:14.398Z,103021.78
2024-01-29T20:51:42.251Z,103015.41
2024-01-29T20:54:13.342Z,103025.13
2024-01-29T20:56:41.186Z,103030.28
2024-01-29T20:59:09.242Z,103020.16
2024-01-29T21:01:37.074Z,103018.50
2024-01-29T21:04:05.609Z,103028.63
2024-01-29T21:06:33.775Z,103018.50
2024-01-29T21:09:01.737Z,103013.94
2024-01-29T21:11:29.595Z,103015.38
2024-01-29T21:13:57.577Z,103015.38
2024-01-29T21:16:28.439Z,103011.25
2024-01-29T21:18:59.114Z,103011.06
2024-01-29T21:21:29.228Z,103012.69
2024-01-29T21:23:56.963Z,103006.94
2024-01-29T21:26:28.220Z,103016.00
2024-01-29T21:28:56.128Z,103013.31
2024-01-29T21:31:24.096Z,103008.78
2024-01-29T21:33:51.772Z,103008.16
2024-01-29T21:36:20.552Z,103008.41
2024-01-29T21:38:48.234Z,103000.75
2024-01-29T21:41:16.009Z,103011.28
2024-01-29T21:43:43.744Z,103001.13
2024-01-29T21:46:12.501Z,103009.63
2024-01-29T21:48:40.257Z,103012.25
2024-01-29T21:51:07.916Z,103003.38
2024-01-29T21:53:36.066Z,103014.94
2024-01-29T21:56:04.238Z,103008.09
2024-01-29T21:58:32.328Z,103014.06
2024-01-29T22:01:00.129Z,103010.78
2024-01-29T22:03:27.928Z,103011.38
2024-01-29T22:05:55.758Z,103009.75
2024-01-29T22:08:23.390Z,103015.91
2024-01-29T22:10:51.069Z,103017.34
2024-01-29T22:13:18.872Z,103017.94
2024-01-29T22:15:46.671Z,103017.16
2024-01-29T22:18:14.301Z,103016.34
2024-01-29T22:20:42.311Z,103013.84
2024-01-29T22:23:10.056Z,103017.13
2024-01-29T22:25:37.942Z,103021.44
2024-01-29T22:28:06.682Z,103014.44
2024-01-29T22:30:34.491Z,103022.25
2024-01-29T22:33:02.195Z,103017.91
2024-01-29T22:35:30.195Z,103011.09
2024-01-29T22:37:57.940Z,103016.88
2024-01-29T22:40:26.363Z,103023.06
2024-01-29T22:42:53.917Z,103019.72
2024-01-29T22:45:21.599Z,103016.44
2024-01-29T22:47:50.352Z,103018.09
2024-01-29T22:50:18.405Z,103011.97
2024-01-29T22:52:46.345Z,103020.19
2024-01-29T22:55:14.013Z,103020.38
2024-01-29T22:57:41.758Z,103017.03
2024-01-29T23:00:23.561Z,103022.63
2024-01-29T23:02:51.341Z,103020.53
2024-01-29T23:05:18.970Z,103019.88
2024-01-29T23:07:47.839Z,103022.78
2024-01-29T23:10:15.616Z,103014.72
2024-01-29T23:12:44.022Z,103015.31
2024-01-29T23:15:12.216Z,103014.28
2024-01-29T23:17:40.121Z,103019.50
2024-01-29T23:20:11.674Z,103019.69
2024-01-29T23:22:39.177Z,103023.88
2024-01-29T23:25:07.137Z,103020.81
2024-01-29T23:27:37.176Z,103026.66
2024-01-29T23:30:09.436Z,103021.25
2024-01-29T23:32:37.203Z,103016.47
2024-01-29T23:35:05.454Z,103025.91
2024-01-29T23:37:33.118Z,103028.03
2024-01-29T23:40:00.939Z,103030.63
2024-01-29T23:42:28.824Z,103025.56
2024-01-29T23:44:56.633Z,103027.06
2024-01-29T23:47:24.316Z,103027.88
2024-01-29T23:49:52.100Z,103018.78
2024-01-29T23:52:28.240Z,103023.31
2024-01-29T23:54:56.443Z,103022.66
2024-01-29T23:57:24.313Z,103020.44
2024-01-29T23:59:52.235Z,103015.84
